Time;durP1;ratioP1;P1;durP2;ratioP2;P2;SDS_P1;SDS_P2;PMS_P1;PMS_P2;Temp;Humidity;BMP_temperature;BMP_pressure;BME280_temperature;BME280_humidity;BME280_pressure;Samples;Min_cycle;Max_cycle;Signal;HPM_P1;HPM_P2
2023/03/20 00:00:25;;;;;;;6.60;4.70;;;21.90;49.80;;;;;;4963704;28;20463;-82
2023/03/20 00:02:53;;;;;;;7.20;4.40;;;21.90;49.80;;;;;;4960672;29;20451;-82
2023/03/20 00:05:23;;;;;;;6.87;4.67;;;21.90;49.90;;;;;;4959356;29;20447;-82
2023/03/20 00:07:51;;;;;;;7.83;4.40;;;21.90;49.90;;;;;;4965385;28;20562;-83
2023/03/20 00:10:21;;;;;;;5.00;4.50;;;21.90;49.90;;;;;;4960010;28;20451;-83
2023/03/20 00:12:50;;;;;;;7.00;4.43;;;21.80;49.80;;;;;;4965225;28;20510;-82
2023/03/20 00:15:25;;;;;;;5.40;4.50;;;21.80;49.80;;;;;;4958991;28;20458;-83
2023/03/20 00:17:53;;;;;;;9.13;4.40;;;21.90;49.80;;;;;;4961897;28;20475;-82
2023/03/20 00:20:21;;;;;;;7.30;4.53;;;21.80;49.80;;;;;;4963861;28;20832;-83
2023/03/20 00:22:50;;;;;;;5.80;5.03;;;21.80;49.90;;;;;;4967597;28;20525;-82
2023/03/20 00:25:20;;;;;;;7.10;4.43;;;21.80;49.80;;;;;;4962721;28;20439;-83
2023/03/20 00:27:49;;;;;;;10.40;4.70;;;21.80;49.90;;;;;;4962678;28;20513;-83
2023/03/20 00:30:21;;;;;;;6.30;4.47;;;21.70;49.80;;;;;;4964985;28;20439;-83
2023/03/20 00:32:49;;;;;;;5.97;4.50;;;21.70;49.80;;;;;;4966623;28;20547;-83
2023/03/20 00:35:23;;;;;;;9.13;4.70;;;21.70;49.90;;;;;;4963694;28;20463;-82
2023/03/20 00:37:51;;;;;;;9.33;4.43;;;21.70;49.90;;;;;;4958554;28;20553;-83
2023/03/20 00:40:21;;;;;;;5.27;4.50;;;21.70;50.00;;;;;;4960069;28;20523;-83
2023/03/20 00:42:50;;;;;;;5.00;4.40;;;21.60;49.80;;;;;;4959442;28;20459;-82
2023/03/20 00:45:19;;;;;;;6.20;4.47;;;21.60;50.00;;;;;;4954000;29;20454;-83
2023/03/20 00:47:50;;;;;;;5.00;4.20;;;21.60;50.10;;;;;;4964210;28;20574;-83
2023/03/20 00:50:20;;;;;;;4.40;3.83;;;21.60;50.00;;;;;;4964613;28;20492;-83
2023/03/20 00:52:49;;;;;;;4.73;4.30;;;21.60;50.00;;;;;;4961533;28;20455;-82
2023/03/20 00:55:17;;;;;;;4.00;3.70;;;21.60;50.00;;;;;;4951886;28;20897;-83
2023/03/20 00:57:49;;;;;;;6.00;4.13;;;21.50;50.00;;;;;;4945206;29;20456;-83
2023/03/20 01:00:23;;;;;;;6.20;4.33;;;21.50;50.10;;;;;;4966044;28;20455;-83
2023/03/20 01:02:52;;;;;;;4.17;3.87;;;21.50;49.90;;;;;;4962422;28;20529;-83
2023/03/20 01:05:20;;;;;;;4.40;4.00;;;21.50;50.70;;;;;;4966182;28;20494;-83
2023/03/20 01:07:49;;;;;;;5.47;4.00;;;21.50;50.00;;;;;;4957750;28;20482;-83
2023/03/20 01:10:17;;;;;;;6.40;4.50;;;21.50;50.10;;;;;;4960531;28;20465;-82
2023/03/20 01:12:47;;;;;;;6.57;3.97;;;21.40;50.00;;;;;;4958181;28;20491;-83
2023/03/20 01:15:20;;;;;;;5.57;4.47;;;21.40;50.00;;;;;;4965787;28;20538;-84
2023/03/20 01:17:49;;;;;;;14.73;11.00;;;21.40;50.00;;;;;;4965369;28;20487;-82
2023/03/20 01:20:18;;;;;;;17.03;11.30;;;21.40;50.20;;;;;;4964909;28;20486;-84
2023/03/20 01:22:47;;;;;;;21.60;12.37;;;21.40;50.10;;;;;;4955236;28;20478;-83
2023/03/20 01:25:16;;;;;;;17.10;11.77;;;21.40;50.20;;;;;;4963887;28;20476;-82
2023/03/20 01:27:44;;;;;;;11.23;8.40;;;21.40;50.10;;;;;;4962585;28;20483;-83
2023/03/20 01:30:19;;;;;;;13.10;8.97;;;21.40;50.20;;;;;;4965992;28;20450;-84
2023/03/20 01:32:47;;;;;;;11.87;9.20;;;21.40;50.20;;;;;;4969068;28;20465;-83
2023/03/20 01:35:16;;;;;;;10.20;7.73;;;21.30;50.10;;;;;;4967021;28;20542;-82
2023/03/20 01:37:44;;;;;;;11.00;8.77;;;21.30;50.20;;;;;;4961000;28;20459;-83
2023/03/20 01:40:33;;;;;;;10.23;8.47;;;21.30;50.30;;;;;;4957914;28;20453;-82
2023/03/20 01:43:02;;;;;;;10.87;8.33;;;21.30;50.20;;;;;;4960261;28;20453;-83
2023/03/20 01:45:32;;;;;;;13.10;8.93;;;21.20;50.20;;;;;;4972576;28;20453;-83
2023/03/20 01:48:00;;;;;;;10.03;8.00;;;21.20;50.20;;;;;;4967727;28;20499;-83
2023/03/20 01:50:30;;;;;;;9.47;7.90;;;21.20;50.20;;;;;;4968438;28;20498;-82
2023/03/20 01:53:08;;;;;;;8.70;7.30;;;21.20;50.20;;;;;;4961000;28;20451;-82
2023/03/20 01:55:39;;;;;;;9.10;7.70;;;21.20;50.90;;;;;;4967607;29;20474;-83
2023/03/20 01:58:08;;;;;;;8.93;7.67;;;21.20;50.30;;;;;;4961330;29;20458;-83
2023/03/20 02:00:37;;;;;;;9.80;7.73;;;21.10;50.30;;;;;;4960692;28;20456;-82
2023/03/20 02:03:06;;;;;;;7.77;6.97;;;21.10;50.30;;;;;;4966139;29;20529;-83
2023/03/20 02:05:35;;;;;;;11.20;7.77;;;21.10;50.30;;;;;;4963139;29;20450;-82
2023/03/20 02:08:10;;;;;;;8.80;7.17;;;21.10;50.20;;;;;;4967923;28;20478;-82
2023/03/20 02:10:38;;;;;;;7.87;6.80;;;21.10;50.30;;;;;;4959893;28;20456;-83
2023/03/20 02:13:06;;;;;;;7.77;6.60;;;21.00;50.40;;;;;;4953447;29;20539;-82
2023/03/20 02:15:36;;;;;;;11.43;7.80;;;21.00;50.30;;;;;;4963732;29;20457;-82
2023/03/20 02:18:05;;;;;;;10.13;6.93;;;21.00;50.30;;;;;;4974928;28;20473;-83
2023/03/20 02:20:43;;;;;;;8.83;6.90;;;21.00;50.30;;;;;;4957118;28;20455;-82
2023/03/20 02:23:41;;;;;;;8.00;6.40;;;21.00;50.20;;;;;;4949670;29;20444;-82
2023/03/20 02:26:31;;;;;;;7.77;6.73;;;21.00;50.30;;;;;;4936136;28;20506;-83
2023/03/20 02:29:22;;;;;;;7.17;6.13;;;21.00;50.40;;;;;;4955323;29;20509;-83
2023/03/20 02:32:26;;;;;;;8.10;6.30;;;21.00;50.20;;;;;;4954948;29;20450;-83
2023/03/20 02:35:09;;;;;;;7.43;5.80;;;21.00;50.30;;;;;;4963598;28;20462;-82
2023/03/20 02:38:05;;;;;;;8.73;6.37;;;20.90;50.20;;;;;;4963455;28;20475;-83
2023/03/20 02:40:35;;;;;;;6.83;5.97;;;20.90;50.30;;;;;;4954332;28;20446;-82
2023/03/20 02:43:08;;;;;;;7.97;6.00;;;20.90;50.30;;;;;;4953697;28;20453;-83
2023/03/20 02:45:42;;;;;;;6.67;5.70;;;20.90;50.30;;;;;;4953381;28;20462;-83
2023/03/20 02:48:13;;;;;;;6.77;6.17;;;20.90;50.30;;;;;;4959019;28;20511;-82
2023/03/20 02:50:44;;;;;;;6.40;5.80;;;20.90;50.30;;;;;;4963107;28;20462;-82
2023/03/20 02:53:23;;;;;;;9.20;6.90;;;20.90;50.40;;;;;;4966217;28;20470;-83
2023/03/20 02:55:54;;;;;;;6.90;5.77;;;20.80;50.30;;;;;;4961223;28;20494;-83
2023/03/20 02:58:25;;;;;;;6.03;5.33;;;20.80;50.30;;;;;;4961697;28;20448;-82
2023/03/20 03:00:56;;;;;;;6.37;5.60;;;20.80;50.40;;;;;;4965501;28;20546;-84
2023/03/20 03:03:27;;;;;;;6.67;5.97;;;20.80;50.30;;;;;;4961001;28;20493;-83
2023/03/20 03:05:57;;;;;;;7.13;6.43;;;20.80;50.30;;;;;;4962238;28;20474;-83
2023/03/20 03:08:28;;;;;;;5.33;4.83;;;20.80;50.40;;;;;;4965285;28;20566;-82
2023/03/20 03:10:58;;;;;;;7.30;5.73;;;20.80;50.40;;;;;;4956667;28;20480;-81
2023/03/20 03:13:28;;;;;;;7.43;6.20;;;20.70;50.20;;;;;;4963053;28;20522;-83
2023/03/20 03:16:01;;;;;;;6.37;5.53;;;20.80;50.40;;;;;;4965614;28;20481;-83
2023/03/20 03:18:31;;;;;;;8.10;5.30;;;20.70;50.30;;;;;;4965065;28;20514;-84
2023/03/20 03:21:00;;;;;;;6.53;5.43;;;20.70;50.40;;;;;;4963413;28;20519;-83
2023/03/20 03:23:32;;;;;;;6.93;6.20;;;20.70;50.30;;;;;;4966381;28;20485;-83
2023/03/20 03:26:00;;;;;;;5.63;4.87;;;20.70;50.40;;;;;;4965681;28;20474;-82
2023/03/20 03:28:35;;;;;;;6.60;5.30;;;20.70;50.30;;;;;;4963862;28;20478;-82
2023/03/20 03:31:04;;;;;;;4.93;4.50;;;20.70;50.30;;;;;;4967153;28;20528;-82
2023/03/20 03:33:33;;;;;;;6.17;4.90;;;20.60;50.50;;;;;;4961527;28;20463;-82
2023/03/20 03:36:04;;;;;;;5.30;4.80;;;20.60;50.50;;;;;;4963139;28;20553;-82
2023/03/20 03:38:37;;;;;;;6.17;5.23;;;20.60;50.30;;;;;;4966635;28;20521;-84
2023/03/20 03:41:11;;;;;;;6.07;5.23;;;20.60;50.40;;;;;;4958501;28;20498;-82
2023/03/20 03:43:41;;;;;;;5.10;4.60;;;20.60;50.40;;;;;;4965161;28;20455;-83
2023/03/20 03:46:11;;;;;;;9.60;4.90;;;20.60;50.40;;;;;;4962993;28;20489;-82
2023/03/20 03:48:40;;;;;;;7.30;5.67;;;20.60;50.60;;;;;;4966561;28;20558;-82
2023/03/20 03:51:10;;;;;;;5.40;4.87;;;20.60;50.40;;;;;;4960746;28;20463;-82
2023/03/20 03:53:41;;;;;;;5.00;4.60;;;20.60;50.50;;;;;;4965960;28;20537;-84
2023/03/20 03:56:11;;;;;;;5.00;4.50;;;20.50;50.30;;;;;;4965320;28;20482;-82
2023/03/20 03:58:41;;;;;;;5.30;4.80;;;20.50;50.30;;;;;;4958995;28;20444;-82
2023/03/20 04:01:10;;;;;;;5.37;4.87;;;20.50;50.40;;;;;;4963435;28;20465;-83
2023/03/20 04:03:39;;;;;;;4.90;4.43;;;20.50;50.30;;;;;;4967033;28;20463;-82
2023/03/20 04:06:10;;;;;;;5.37;4.87;;;20.50;50.20;;;;;;4973616;28;20478;-82
2023/03/20 04:08:40;;;;;;;4.80;4.33;;;20.50;50.30;;;;;;4964405;28;20527;-83
2023/03/20 04:11:09;;;;;;;5.20;4.63;;;20.50;50.20;;;;;;4958720;28;20459;-82
2023/03/20 04:13:37;;;;;;;4.90;4.50;;;20.50;50.40;;;;;;4955586;28;20440;-82
2023/03/20 04:16:06;;;;;;;5.73;4.70;;;20.50;50.40;;;;;;4956235;28;20478;-82
2023/03/20 04:18:34;;;;;;;4.93;4.43;;;20.40;50.40;;;;;;4956187;28;20478;-84
2023/03/20 04:21:02;;;;;;;4.53;4.13;;;20.40;50.40;;;;;;4967502;28;20522;-82
2023/03/20 04:23:30;;;;;;;4.90;4.50;;;20.40;50.40;;;;;;4965259;28;20462;-81
2023/03/20 04:26:01;;;;;;;5.00;4.50;;;20.40;50.30;;;;;;4969008;28;20474;-82
2023/03/20 04:28:29;;;;;;;4.47;4.07;;;20.40;50.30;;;;;;4961669;28;20485;-83
2023/03/20 04:30:58;;;;;;;5.43;4.83;;;20.40;50.30;;;;;;4957824;28;20480;-82
2023/03/20 04:33:26;;;;;;;5.00;4.50;;;20.40;50.30;;;;;;4961159;28;20559;-82
2023/03/20 04:35:54;;;;;;;5.10;4.27;;;20.40;50.40;;;;;;4961956;28;20559;-83
2023/03/20 04:38:23;;;;;;;4.63;4.20;;;20.40;50.30;;;;;;4963359;28;20467;-83
2023/03/20 04:40:51;;;;;;;6.60;4.67;;;20.40;50.40;;;;;;4961728;28;20535;-83
2023/03/20 04:43:20;;;;;;;4.83;4.30;;;20.40;50.40;;;;;;4955251;28;20464;-82
2023/03/20 04:45:48;;;;;;;5.40;4.43;;;20.30;50.40;;;;;;4957067;28;20546;-83
2023/03/20 04:48:16;;;;;;;5.03;4.20;;;20.30;50.40;;;;;;4958394;28;20515;-82
2023/03/20 04:50:47;;;;;;;6.00;4.70;;;20.30;50.30;;;;;;4957345;28;21004;-82
2023/03/20 04:53:15;;;;;;;4.13;3.73;;;20.30;50.30;;;;;;4962006;28;20430;-82
2023/03/20 04:55:44;;;;;;;5.53;4.50;;;20.30;50.40;;;;;;4959881;29;20444;-83
2023/03/20 04:58:12;;;;;;;4.23;3.80;;;20.30;50.30;;;;;;4969613;28;20461;-82
2023/03/20 05:00:42;;;;;;;4.80;4.33;;;20.30;50.40;;;;;;4961991;28;20459;-83
2023/03/20 05:03:10;;;;;;;5.37;4.87;;;20.30;50.40;;;;;;4960164;28;20450;-82
2023/03/20 05:05:38;;;;;;;5.07;4.57;;;20.20;50.30;;;;;;4962840;28;20459;-82
2023/03/20 05:08:06;;;;;;;4.77;4.20;;;20.20;50.40;;;;;;4957650;28;20526;-82
2023/03/20 05:10:34;;;;;;;4.77;4.37;;;20.20;50.40;;;;;;4959813;28;20469;-83
2023/03/20 05:13:02;;;;;;;5.20;4.00;;;20.20;50.30;;;;;;4965102;28;20467;-83
2023/03/20 05:15:30;;;;;;;4.83;4.30;;;20.20;50.30;;;;;;4955535;28;20465;-82
2023/03/20 05:18:00;;;;;;;3.87;3.57;;;20.20;50.30;;;;;;4961700;28;20465;-82
2023/03/20 05:20:28;;;;;;;4.60;4.20;;;20.20;50.40;;;;;;4958228;28;20450;-82
2023/03/20 05:22:56;;;;;;;4.60;4.20;;;20.20;50.30;;;;;;4956007;28;20487;-81
2023/03/20 05:25:24;;;;;;;4.13;3.83;;;20.20;50.50;;;;;;4960888;28;20454;-82
2023/03/20 05:27:52;;;;;;;3.97;3.67;;;20.10;50.40;;;;;;4962300;28;20456;-81
2023/03/20 05:30:20;;;;;;;4.00;3.70;;;20.10;50.40;;;;;;4957938;28;20467;-81
2023/03/20 05:32:50;;;;;;;4.23;3.90;;;20.10;50.40;;;;;;4951200;28;20463;-82
2023/03/20 05:35:20;;;;;;;4.07;3.77;;;20.10;50.30;;;;;;4956936;28;20518;-81
2023/03/20 05:37:48;;;;;;;4.17;3.77;;;20.10;50.30;;;;;;4960229;28;20475;-81
2023/03/20 05:40:18;;;;;;;4.60;4.10;;;20.10;50.40;;;;;;4961674;28;20451;-81
2023/03/20 05:42:45;;;;;;;4.33;3.93;;;20.10;50.20;;;;;;4956379;28;20454;-81
2023/03/20 05:45:14;;;;;;;3.67;3.37;;;20.10;50.30;;;;;;4956078;28;20457;-81
2023/03/20 05:47:42;;;;;;;4.03;3.67;;;20.10;50.30;;;;;;4949968;28;21026;-81
2023/03/20 05:50:11;;;;;;;5.27;4.00;;;20.10;50.40;;;;;;4959094;28;20478;-81
2023/03/20 05:52:41;;;;;;;4.50;4.00;;;20.10;50.30;;;;;;4941162;29;20471;-82
2023/03/20 05:55:09;;;;;;;4.03;3.70;;;20.10;50.40;;;;;;4953560;28;20459;-81
2023/03/20 05:57:37;;;;;;;3.83;3.53;;;20.10;50.40;;;;;;4946559;28;20513;-80
2023/03/20 06:00:06;;;;;;;4.10;3.77;;;20.10;50.40;;;;;;4957173;28;20558;-82
2023/03/20 06:02:34;;;;;;;5.30;3.70;;;20.10;50.30;;;;;;4948065;28;20457;-82
2023/03/20 06:05:02;;;;;;;8.20;3.77;;;20.10;50.30;;;;;;4957819;28;20888;-81
2023/03/20 06:07:30;;;;;;;3.90;3.40;;;20.10;50.40;;;;;;4965704;28;20479;-82
2023/03/20 06:10:00;;;;;;;4.13;3.70;;;20.10;50.40;;;;;;4963395;28;20545;-82
2023/03/20 06:12:28;;;;;;;4.50;3.43;;;20.10;50.40;;;;;;4955007;28;21085;-82
2023/03/20 06:14:56;;;;;;;3.80;3.50;;;20.00;50.30;;;;;;4954697;28;20465;-81
2023/03/20 06:17:24;;;;;;;3.90;3.60;;;20.10;50.40;;;;;;4954600;28;20482;-82
2023/03/20 06:19:52;;;;;;;3.90;3.60;;;20.10;50.30;;;;;;4959077;28;20486;-83
2023/03/20 06:22:20;;;;;;;4.00;3.70;;;20.00;50.30;;;;;;4957226;28;20489;-81
2023/03/20 06:24:48;;;;;;;4.37;3.97;;;20.00;50.40;;;;;;4957636;28;20469;-83
2023/03/20 06:27:17;;;;;;;4.37;3.90;;;20.00;50.30;;;;;;4961924;28;20479;-81
2023/03/20 06:29:46;;;;;;;4.20;3.80;;;20.00;50.30;;;;;;4957584;28;20465;-83
2023/03/20 06:32:16;;;;;;;3.73;3.43;;;20.00;50.20;;;;;;4960832;28;20461;-82
2023/03/20 06:34:44;;;;;;;3.73;3.43;;;20.00;50.20;;;;;;4966401;28;20558;-83
2023/03/20 06:37:12;;;;;;;4.00;3.60;;;20.00;50.30;;;;;;4967127;28;20493;-82
2023/03/20 06:39:40;;;;;;;4.50;3.50;;;20.00;50.30;;;;;;4961918;28;20468;-81
2023/03/20 06:42:08;;;;;;;3.73;3.43;;;20.00;50.40;;;;;;4959955;28;20462;-81
2023/03/20 06:44:38;;;;;;;3.93;3.63;;;20.00;50.10;;;;;;4965717;28;20455;-82
2023/03/20 06:47:06;;;;;;;4.57;3.80;;;20.00;50.30;;;;;;4965721;28;20514;-82
2023/03/20 06:49:34;;;;;;;5.50;4.27;;;19.90;50.20;;;;;;4965499;28;20461;-81
2023/03/20 06:52:02;;;;;;;3.83;3.43;;;20.00;50.20;;;;;;4964626;28;20471;-82
2023/03/20 06:54:31;;;;;;;4.23;3.80;;;20.00;50.20;;;;;;4965295;28;20546;-82
2023/03/20 06:56:58;;;;;;;4.30;3.90;;;20.00;50.20;;;;;;4967114;28;20479;-84
2023/03/20 06:59:26;;;;;;;4.13;3.70;;;20.00;50.00;;;;;;4965442;28;20467;-82
2023/03/20 07:01:57;;;;;;;4.10;3.70;;;20.00;50.20;;;;;;4975128;28;20475;-82
2023/03/20 07:04:26;;;;;;;3.90;3.60;;;20.00;50.00;;;;;;4964971;28;20899;-83
2023/03/20 07:06:55;;;;;;;5.03;3.80;;;20.00;50.00;;;;;;4963307;28;20485;-83
2023/03/20 07:09:23;;;;;;;3.97;3.67;;;19.90;49.90;;;;;;4959297;28;20495;-83
2023/03/20 07:11:52;;;;;;;5.17;3.83;;;19.90;50.00;;;;;;4961295;28;20992;-82
2023/03/20 07:14:21;;;;;;;3.70;3.40;;;19.90;50.00;;;;;;4965031;28;20469;-82
2023/03/20 07:16:49;;;;;;;4.20;3.80;;;19.90;50.00;;;;;;4968516;28;20546;-81
2023/03/20 07:19:19;;;;;;;3.50;3.20;;;19.90;49.90;;;;;;4968887;28;20451;-83
2023/03/20 07:21:48;;;;;;;3.77;3.47;;;19.90;49.80;;;;;;4960668;28;20459;-82
2023/03/20 07:24:16;;;;;;;4.10;3.80;;;19.90;50.00;;;;;;4968139;28;20456;-83
2023/03/20 07:26:45;;;;;;;6.00;3.43;;;19.90;50.00;;;;;;4967671;28;20505;-81
2023/03/20 07:29:13;;;;;;;3.80;3.50;;;20.00;50.10;;;;;;4949959;28;20463;-82
2023/03/20 07:31:41;;;;;;;3.70;3.40;;;20.00;49.90;;;;;;4960192;28;20494;-82
2023/03/20 07:34:09;;;;;;;3.80;3.50;;;19.90;50.00;;;;;;4959246;28;20475;-82
2023/03/20 07:36:40;;;;;;;6.70;3.63;;;19.90;49.90;;;;;;4963470;28;20482;-83
2023/03/20 07:39:08;;;;;;;4.03;3.63;;;19.90;49.90;;;;;;4960581;28;20452;-81
2023/03/20 07:41:36;;;;;;;3.17;2.97;;;20.00;49.90;;;;;;4957261;28;20450;-82
2023/03/20 07:44:04;;;;;;;4.07;3.47;;;19.90;49.80;;;;;;4963588;28;20458;-83
2023/03/20 07:46:32;;;;;;;3.57;3.27;;;19.90;49.90;;;;;;4967808;28;20487;-83
2023/03/20 07:49:00;;;;;;;3.50;3.30;;;19.90;49.80;;;;;;4964548;28;20462;-83
2023/03/20 07:51:28;;;;;;;5.03;3.47;;;20.00;49.90;;;;;;4964927;28;20481;-82
2023/03/20 07:53:57;;;;;;;3.10;2.90;;;20.00;49.90;;;;;;4959965;28;20466;-83
2023/03/20 07:56:26;;;;;;;3.20;3.00;;;20.00;49.90;;;;;;4962473;28;20574;-81
2023/03/20 07:58:54;;;;;;;3.57;3.20;;;20.00;49.80;;;;;;4956993;29;20518;-81
2023/03/20 08:01:22;;;;;;;4.33;3.00;;;20.00;50.00;;;;;;4957719;28;20451;-81
2023/03/20 08:03:51;;;;;;;4.03;3.63;;;20.00;49.70;;;;;;4969176;28;20457;-81
2023/03/20 08:06:19;;;;;;;6.20;3.23;;;20.00;49.90;;;;;;4964630;28;20493;-82
2023/03/20 08:08:50;;;;;;;3.17;2.90;;;20.00;49.90;;;;;;4952558;28;20447;-82
2023/03/20 08:11:20;;;;;;;3.27;3.00;;;20.00;49.70;;;;;;4963133;28;20474;-82
2023/03/20 08:13:48;;;;;;;3.50;3.27;;;20.00;49.60;;;;;;4960460;28;20463;-81
2023/03/20 08:16:16;;;;;;;3.70;3.10;;;20.00;49.70;;;;;;4966003;28;20485;-81
2023/03/20 08:18:44;;;;;;;5.00;3.10;;;20.10;49.80;;;;;;4963306;28;20455;-82
2023/03/20 08:21:12;;;;;;;3.67;3.03;;;20.00;49.60;;;;;;4960856;28;20979;-81
2023/03/20 08:23:40;;;;;;;3.17;2.97;;;20.10;50.20;;;;;;4955934;28;20453;-81
2023/03/20 08:26:08;;;;;;;2.97;2.73;;;20.10;49.80;;;;;;4967146;28;20480;-82
2023/03/20 08:28:38;;;;;;;4.10;3.00;;;20.10;49.60;;;;;;4960249;28;20450;-82
2023/03/20 08:31:16;;;;;;;3.13;2.83;;;20.10;49.60;;;;;;4959981;28;20475;-82
2023/03/20 08:33:44;;;;;;;3.67;3.37;;;20.10;49.50;;;;;;4961663;28;20967;-81
2023/03/20 08:36:14;;;;;;;3.07;2.77;;;20.10;49.50;;;;;;4949351;28;20498;-81
2023/03/20 08:38:42;;;;;;;3.10;2.90;;;20.10;49.50;;;;;;4943068;28;20550;-81
2023/03/20 08:41:10;;;;;;;4.20;3.17;;;20.10;49.40;;;;;;4954741;28;20451;-81
2023/03/20 08:43:40;;;;;;;2.80;2.60;;;20.10;49.50;;;;;;4949909;28;20465;-81
2023/03/20 08:46:08;;;;;;;4.00;2.80;;;20.20;49.40;;;;;;4954587;28;20478;-82
2023/03/20 08:48:36;;;;;;;3.17;2.87;;;20.20;49.40;;;;;;4953121;29;20554;-81
2023/03/20 08:51:06;;;;;;;3.13;2.80;;;20.20;49.30;;;;;;4946113;29;20447;-81
2023/03/20 08:53:34;;;;;;;2.77;2.57;;;20.30;49.20;;;;;;4950529;28;20458;-81
2023/03/20 08:56:02;;;;;;;3.30;3.07;;;20.30;49.30;;;;;;4960657;28;20474;-81
2023/03/20 08:58:30;;;;;;;2.83;2.63;;;20.30;49.20;;;;;;4955604;28;20454;-81
2023/03/20 09:01:04;;;;;;;2.97;2.77;;;20.30;49.20;;;;;;4956106;28;20506;-81
2023/03/20 09:03:32;;;;;;;2.87;2.67;;;20.30;49.10;;;;;;4964387;28;20458;-81
2023/03/20 09:06:00;;;;;;;2.70;2.60;;;20.30;49.10;;;;;;4950808;28;20478;-81
2023/03/20 09:08:28;;;;;;;2.97;2.77;;;20.30;49.00;;;;;;4950170;28;20453;-82
2023/03/20 09:10:56;;;;;;;2.80;2.50;;;20.30;48.90;;;;;;4956364;28;20440;-81
2023/03/20 09:13:25;;;;;;;3.27;2.97;;;20.30;48.90;;;;;;4952863;29;20582;-81
2023/03/20 09:15:54;;;;;;;2.77;2.57;;;20.30;48.90;;;;;;4959975;28;20446;-81
2023/03/20 09:18:24;;;;;;;2.77;2.57;;;20.30;48.90;;;;;;4962288;28;20456;-82
2023/03/20 09:20:52;;;;;;;2.83;2.63;;;20.40;49.10;;;;;;4955865;28;20447;-81
2023/03/20 09:23:20;;;;;;;2.93;2.37;;;20.30;48.90;;;;;;4960628;29;20454;-81
2023/03/20 09:25:48;;;;;;;3.50;2.70;;;20.30;48.80;;;;;;4958267;28;20440;-81
2023/03/20 09:28:16;;;;;;;2.67;2.50;;;20.40;48.90;;;;;;4958057;28;20439;-81
2023/03/20 09:30:44;;;;;;;3.40;2.97;;;20.40;48.80;;;;;;4955597;29;20534;-80
2023/03/20 09:33:13;;;;;;;2.77;2.53;;;20.40;48.80;;;;;;4951876;28;20506;-80
2023/03/20 09:35:43;;;;;;;2.73;2.53;;;20.40;48.70;;;;;;4954738;29;20443;-80
2023/03/20 09:38:12;;;;;;;2.37;2.17;;;20.40;48.60;;;;;;4958497;28;20457;-81
2023/03/20 09:40:49;;;;;;;3.80;2.87;;;20.50;48.70;;;;;;4951970;28;20497;-81
2023/03/20 09:43:47;;;;;;;4.13;2.43;;;20.50;48.70;;;;;;4952238;28;20458;-81
2023/03/20 09:46:27;;;;;;;2.93;2.73;;;20.50;48.60;;;;;;4955873;29;20559;-81
2023/03/20 09:48:58;;;;;;;3.30;3.10;;;20.50;48.60;;;;;;4953955;28;20466;-81
2023/03/20 09:51:31;;;;;;;12.97;5.40;;;20.50;48.60;;;;;;4956935;28;20474;-80
2023/03/20 09:54:01;;;;;;;22.43;10.03;;;19.80;44.20;;;;;;4961565;28;20465;-82
2023/03/20 09:56:29;;;;;;;27.70;16.00;;;17.60;44.50;;;;;;4953082;29;20485;-78
2023/03/20 09:58:58;;;;;;;21.77;10.23;;;16.30;46.80;;;;;;4955884;28;20490;-79
2023/03/20 10:01:27;;;;;;;22.60;9.57;;;15.60;50.30;;;;;;4953411;29;20469;-78
2023/03/20 10:03:56;;;;;;;13.43;8.53;;;16.90;51.00;;;;;;4955605;28;20452;-79
2023/03/20 10:06:25;;;;;;;15.60;7.90;;;17.90;48.70;;;;;;4956195;28;20504;-79
2023/03/20 10:08:57;;;;;;;16.70;8.00;;;18.60;47.10;;;;;;4955583;29;20451;-77
2023/03/20 10:11:34;;;;;;;11.40;7.00;;;19.20;46.10;;;;;;4953735;29;20451;-82
2023/03/20 10:14:11;;;;;;;14.60;6.30;;;19.70;45.60;;;;;;4960988;28;20462;-81
2023/03/20 10:16:49;;;;;;;13.50;6.23;;;20.10;44.90;;;;;;4958927;28;20465;-81
2023/03/20 10:19:21;;;;;;;10.60;5.80;;;20.30;44.40;;;;;;4961402;28;20454;-83
2023/03/20 10:21:50;;;;;;;10.63;5.50;;;20.50;44.20;;;;;;4954910;28;20471;-83
2023/03/20 10:24:21;;;;;;;7.20;5.50;;;20.60;43.90;;;;;;4958204;28;20462;-81
2023/03/20 10:26:50;;;;;;;7.80;4.73;;;20.70;44.00;;;;;;4955399;28;20487;-83
2023/03/20 10:29:24;;;;;;;11.87;5.17;;;20.80;44.00;;;;;;4963213;28;20452;-81
2023/03/20 10:31:55;;;;;;;7.10;4.40;;;20.80;44.00;;;;;;4965369;28;20485;-82
2023/03/20 10:34:36;;;;;;;5.63;4.43;;;21.00;44.00;;;;;;4961720;28;20455;-84
2023/03/20 10:37:12;;;;;;;5.73;4.30;;;21.30;44.00;;;;;;4958861;28;21313;-79
2023/03/20 10:39:51;;;;;;;5.60;3.87;;;21.60;43.70;;;;;;4959363;28;20458;-82
2023/03/20 10:42:21;;;;;;;4.87;3.90;;;21.80;43.50;;;;;;4959551;28;20479;-81
2023/03/20 10:44:52;;;;;;;4.70;3.70;;;22.10;43.50;;;;;;4963986;28;20459;-83
2023/03/20 10:47:21;;;;;;;9.07;4.20;;;22.60;44.80;;;;;;4960805;28;20482;-82
2023/03/20 10:49:51;;;;;;;4.60;3.60;;;22.90;43.80;;;;;;4960542;28;20511;-82
2023/03/20 10:52:20;;;;;;;8.50;3.90;;;23.10;43.80;;;;;;4959145;28;20467;-83
2023/03/20 10:54:50;;;;;;;3.73;3.40;;;23.20;43.60;;;;;;4962881;28;20546;-83
2023/03/20 10:57:21;;;;;;;5.03;3.17;;;23.40;43.70;;;;;;4963218;28;20479;-82
2023/03/20 10:59:50;;;;;;;4.43;3.27;;;23.40;43.40;;;;;;4963375;28;20473;-81
2023/03/20 11:02:20;;;;;;;7.20;3.33;;;23.40;43.10;;;;;;4956877;28;20459;-80
2023/03/20 11:04:48;;;;;;;5.07;3.60;;;23.40;43.30;;;;;;4955186;28;20459;-82
2023/03/20 11:07:19;;;;;;;6.40;3.40;;;23.40;43.10;;;;;;4952512;28;20487;-83
2023/03/20 11:10:07;;;;;;;5.50;3.40;;;23.40;43.20;;;;;;4949759;28;20442;-82
2023/03/20 11:12:36;;;;;;;3.83;2.90;;;23.40;43.10;;;;;;4961614;28;20479;-81
2023/03/20 11:15:15;;;;;;;3.47;2.80;;;23.30;43.30;;;;;;4970785;28;20428;-82
2023/03/20 11:17:43;;;;;;;6.17;3.17;;;23.30;43.40;;;;;;4960036;28;20470;-82
2023/03/20 11:20:14;;;;;;;6.30;3.13;;;23.40;43.40;;;;;;4953740;28;20426;-81
2023/03/20 11:22:42;;;;;;;5.00;3.00;;;23.40;43.20;;;;;;4954889;28;20461;-82
2023/03/20 11:25:24;;;;;;;5.37;3.13;;;23.30;43.20;;;;;;4954996;28;20451;-81
2023/03/20 11:27:54;;;;;;;3.67;3.00;;;23.20;43.40;;;;;;4959152;28;20479;-82
2023/03/20 11:30:22;;;;;;;5.47;3.27;;;23.10;43.60;;;;;;4961302;28;20472;-82
2023/03/20 11:32:50;;;;;;;4.90;3.33;;;23.10;43.60;;;;;;4968675;28;20466;-82
2023/03/20 11:35:22;;;;;;;4.50;3.10;;;23.10;43.70;;;;;;4963716;28;20534;-82
2023/03/20 11:37:53;;;;;;;3.60;3.10;;;23.00;43.80;;;;;;4959249;28;20486;-81
2023/03/20 11:40:25;;;;;;;3.97;2.90;;;22.90;43.80;;;;;;4962375;28;20499;-82
2023/03/20 11:42:53;;;;;;;3.03;2.73;;;22.80;44.00;;;;;;4955940;28;20447;-80
2023/03/20 11:45:21;;;;;;;9.67;3.20;;;22.80;44.20;;;;;;4956587;28;20473;-81
2023/03/20 11:47:49;;;;;;;5.13;3.60;;;22.80;44.20;;;;;;4956770;28;20458;-81
2023/03/20 11:50:30;;;;;;;3.67;3.00;;;22.80;44.10;;;;;;4956434;28;20457;-81
2023/03/20 11:52:58;;;;;;;3.30;3.00;;;22.80;44.20;;;;;;4952728;28;20476;-79
2023/03/20 11:55:29;;;;;;;2.97;2.77;;;22.70;44.00;;;;;;4955501;28;20465;-81
2023/03/20 11:57:57;;;;;;;4.70;3.60;;;22.70;44.10;;;;;;4954089;28;20480;-82
2023/03/20 12:00:26;;;;;;;5.27;3.70;;;22.70;44.10;;;;;;4956207;28;20460;-81
2023/03/20 12:02:54;;;;;;;6.90;3.53;;;22.60;44.20;;;;;;4957759;28;20447;-81
2023/03/20 12:05:30;;;;;;;4.70;3.40;;;22.60;44.40;;;;;;4957075;28;20518;-79
2023/03/20 12:08:01;;;;;;;4.10;3.30;;;22.60;44.40;;;;;;4954793;28;20481;-80
2023/03/20 12:10:32;;;;;;;4.60;3.80;;;22.60;44.40;;;;;;4955983;28;20466;-81
2023/03/20 12:13:02;;;;;;;7.17;3.70;;;22.60;44.30;;;;;;4950411;28;20478;-79
2023/03/20 12:15:31;;;;;;;5.53;3.47;;;22.60;44.20;;;;;;4951170;28;20459;-80
2023/03/20 12:18:01;;;;;;;5.70;3.80;;;22.60;44.20;;;;;;4957686;28;20559;-79
2023/03/20 12:20:32;;;;;;;4.77;3.77;;;22.50;44.10;;;;;;4952673;28;20460;-80
2023/03/20 12:23:06;;;;;;;4.10;3.80;;;22.50;44.20;;;;;;4953207;28;20455;-78
2023/03/20 12:25:38;;;;;;;4.03;3.63;;;22.50;44.30;;;;;;4951107;28;20460;-79
2023/03/20 12:28:12;;;;;;;4.37;3.97;;;22.50;45.00;;;;;;4956365;28;20554;-81
2023/03/20 12:30:54;;;;;;;4.77;3.80;;;22.60;44.50;;;;;;4954597;29;20452;-80
2023/03/20 12:33:35;;;;;;;7.33;4.10;;;22.70;44.20;;;;;;4948779;28;20474;-79
2023/03/20 12:36:03;;;;;;;5.70;3.87;;;22.80;44.20;;;;;;4950728;28;20483;-78
2023/03/20 12:38:33;;;;;;;4.93;3.80;;;22.70;44.00;;;;;;4950804;28;20463;-79
2023/03/20 12:41:08;;;;;;;5.23;3.73;;;22.70;44.00;;;;;;4946542;28;20454;-79
2023/03/20 12:43:41;;;;;;;5.50;3.77;;;22.70;44.00;;;;;;4945526;28;20447;-79
2023/03/20 12:46:15;;;;;;;5.57;3.37;;;22.60;44.00;;;;;;4952769;28;20474;-79
2023/03/20 12:48:48;;;;;;;4.73;3.10;;;22.60;44.00;;;;;;4952572;28;20510;-79
2023/03/20 12:51:19;;;;;;;12.93;3.23;;;22.50;44.10;;;;;;4953141;28;20455;-79
2023/03/20 12:53:53;;;;;;;5.63;3.50;;;22.50;44.20;;;;;;4952223;28;20455;-79
2023/03/20 12:56:31;;;;;;;3.70;3.00;;;22.40;44.20;;;;;;4951174;28;20490;-77
2023/03/20 12:59:01;;;;;;;5.80;3.57;;;22.40;44.50;;;;;;4952025;28;20474;-80
2023/03/20 13:01:30;;;;;;;4.27;3.23;;;22.40;44.70;;;;;;4957536;28;20458;-79